Terminal Aerodrome Forecast
Issued by NWS

Current Version | Previous Version | Text Only | Print | Product List | Glossary On
Versions: 1 2 3 4 5 6 7 8 9 10 11 12 13 14 15 16 17 18
950
FTUS43 KJKL 281139
TAFSME
TAF
KSME 281139Z 2812/2912 20004KT P6SM VCSH BKN025 OVC050
     FM281400 21008KT 5SM BR VCTS SCT015CB OVC025
     FM281600 24007KT 3SM SHRA BR VCTS SCT008CB OVC015
     FM290300 VRB03KT 5SM BR VCTS OVC008CB
     FM290500 25004KT 1SM BR BKN015 OVC025
     FM290700 VRB03KT 3/4SM BR BKN008 OVC015=

USA.gov is the U.S. government's official web portal to all federal, state and local government web resources and services.